createdAt,value
2024-03-11T00:00:19.255Z,8.48
2024-03-11T00:02:51.058Z,6.82
2024-03-11T00:05:18.688Z,9.33
2024-03-11T00:07:47.935Z,8.30
2024-03-11T00:10:15.717Z,7.78
2024-03-11T00:12:50.842Z,9.60
2024-03-11T00:15:25.098Z,8.85
2024-03-11T00:17:53.730Z,8.77
2024-03-11T00:20:24.284Z,9.50
2024-03-11T00:22:52.003Z,9.90
2024-03-11T00:25:20.498Z,10.10
2024-03-11T00:27:48.140Z,10.32
2024-03-11T00:30:16.595Z,10.10
2024-03-11T00:32:47.895Z,7.50
2024-03-11T00:35:16.627Z,12.90
2024-03-11T00:37:44.494Z,10.02
2024-03-11T00:40:12.693Z,10.95
2024-03-11T00:42:40.381Z,11.07
2024-03-11T00:45:09.022Z,8.80
2024-03-11T00:47:36.632Z,10.35
2024-03-11T00:50:07.939Z,11.52
2024-03-11T00:52:35.609Z,8.43
2024-03-11T00:55:04.078Z,8.40
2024-03-11T00:57:31.641Z,10.15
2024-03-11T00:59:59.386Z,9.98
2024-03-11T01:02:27.016Z,10.98
2024-03-11T01:04:54.579Z,11.43
2024-03-11T01:07:28.118Z,8.97
2024-03-11T01:10:03.846Z,11.35
2024-03-11T01:12:34.259Z,11.15
2024-03-11T01:15:03.173Z,9.88
2024-03-11T01:17:30.701Z,11.60
2024-03-11T01:19:58.534Z,10.03
2024-03-11T01:22:26.016Z,10.60
2024-03-11T01:24:53.601Z,11.15
2024-03-11T01:27:21.192Z,9.57
2024-03-11T01:29:49.145Z,9.55
2024-03-11T01:32:17.625Z,10.40
2024-03-11T01:34:45.568Z,11.45
2024-03-11T01:37:13.577Z,9.63
2024-03-11T01:39:44.176Z,11.80
2024-03-11T01:42:16.391Z,8.50
2024-03-11T01:44:49.534Z,11.20
2024-03-11T01:47:19.007Z,10.80
2024-03-11T01:49:47.003Z,11.32
2024-03-11T01:52:17.584Z,9.70
2024-03-11T01:54:45.227Z,11.95
2024-03-11T01:57:12.755Z,11.27
2024-03-11T01:59:41.038Z,10.40
2024-03-11T02:02:11.712Z,8.93
2024-03-11T02:04:43.526Z,8.68
2024-03-11T02:07:11.262Z,10.48
2024-03-11T02:09:38.824Z,6.97
2024-03-11T02:12:07.526Z,11.32
2024-03-11T02:14:35.116Z,7.70
2024-03-11T02:17:03.315Z,9.05
2024-03-11T02:19:30.808Z,9.55
2024-03-11T02:21:58.448Z,9.77
2024-03-11T02:24:26.792Z,8.48
2024-03-11T02:26:54.300Z,8.10
2024-03-11T02:29:22.235Z,9.55
2024-03-11T02:31:49.770Z,8.88
2024-03-11T02:34:17.430Z,7.47
2024-03-11T02:36:49.353Z,8.07
2024-03-11T02:39:17.156Z,8.70
2024-03-11T02:41:45.169Z,7.75
2024-03-11T02:44:13.680Z,8.35
2024-03-11T02:46:43.156Z,9.07
2024-03-11T02:49:11.404Z,7.50
2024-03-11T02:51:42.726Z,7.25
2024-03-11T02:54:10.390Z,6.43
2024-03-11T02:56:39.121Z,8.77
2024-03-11T02:59:07.019Z,6.60
2024-03-11T03:01:34.749Z,7.90
2024-03-11T03:04:02.371Z,6.53
2024-03-11T03:06:30.570Z,6.07
2024-03-11T03:08:58.114Z,7.53
2024-03-11T03:11:25.952Z,5.90
2024-03-11T03:13:53.662Z,7.13
2024-03-11T03:16:21.290Z,6.82
2024-03-11T03:18:49.074Z,6.35
2024-03-11T03:21:17.023Z,7.43
2024-03-11T03:23:44.761Z,7.50
2024-03-11T03:26:12.443Z,8.18
2024-03-11T03:28:40.462Z,5.95
2024-03-11T03:31:10.900Z,5.65
2024-03-11T03:33:38.691Z,8.02
2024-03-11T03:36:06.415Z,7.53
2024-03-11T03:38:34.110Z,6.18
2024-03-11T03:41:01.598Z,6.57
2024-03-11T03:43:29.215Z,6.40
2024-03-11T03:45:56.745Z,6.53
2024-03-11T03:48:24.301Z,5.17
2024-03-11T03:50:52.372Z,6.00
2024-03-11T03:53:20.001Z,6.22
2024-03-11T03:55:47.596Z,6.43
2024-03-11T03:58:15.189Z,6.45
2024-03-11T04:00:42.727Z,5.80
2024-03-11T04:03:10.282Z,5.93
2024-03-11T04:05:37.893Z,4.65
2024-03-11T04:08:05.994Z,7.10
2024-03-11T04:10:34.924Z,7.13
2024-03-11T04:13:02.519Z,5.90
2024-03-11T04:15:31.525Z,6.55
2024-03-11T04:18:00.979Z,6.50
2024-03-11T04:20:29.763Z,6.47
2024-03-11T04:22:58.224Z,8.05
2024-03-11T04:25:30.565Z,7.57
2024-03-11T04:27:58.597Z,6.88
2024-03-11T04:30:46.295Z,7.07
2024-03-11T04:33:18.424Z,7.85
2024-03-11T04:35:47.690Z,7.15
2024-03-11T04:38:16.525Z,6.07
2024-03-11T04:40:48.778Z,7.63
2024-03-11T04:43:17.576Z,6.82
2024-03-11T04:45:45.168Z,8.27
2024-03-11T04:48:13.129Z,8.02
2024-03-11T04:50:43.592Z,6.47
2024-03-11T04:53:12.357Z,6.75
2024-03-11T04:55:40.166Z,6.95
2024-03-11T04:58:08.627Z,7.10
2024-03-11T05:00:36.297Z,7.90
2024-03-11T05:03:04.715Z,6.27
2024-03-11T05:05:42.331Z,5.68
2024-03-11T05:08:10.939Z,7.80
2024-03-11T05:10:39.502Z,7.72
2024-03-11T05:13:07.396Z,9.07
2024-03-11T05:15:35.170Z,7.50
2024-03-11T05:18:03.629Z,7.28
2024-03-11T05:20:31.389Z,8.32
2024-03-11T05:22:59.050Z,7.20
2024-03-11T05:25:26.932Z,6.97
2024-03-11T05:27:54.678Z,12.17
2024-03-11T05:30:22.639Z,7.90
2024-03-11T05:32:50.451Z,9.55
2024-03-11T05:35:22.170Z,13.18
2024-03-11T05:37:52.328Z,9.82
2024-03-11T05:40:20.166Z,9.27
2024-03-11T05:42:50.002Z,8.38
2024-03-11T05:45:17.874Z,9.50
2024-03-11T05:47:47.125Z,9.07
2024-03-11T05:50:16.363Z,7.85
2024-03-11T05:52:46.852Z,9.37
2024-03-11T05:55:14.819Z,9.68
2024-03-11T05:57:44.855Z,8.07
2024-03-11T06:00:17.808Z,9.13
2024-03-11T06:02:46.908Z,9.52
2024-03-11T06:05:15.278Z,9.87
2024-03-11T06:07:44.170Z,8.68
2024-03-11T06:10:12.085Z,9.10
2024-03-11T06:12:40.367Z,12.15
2024-03-11T06:15:09.215Z,9.45
2024-03-11T06:17:37.691Z,11.10
2024-03-11T06:20:11.710Z,11.32
2024-03-11T06:22:40.710Z,13.52
2024-03-11T06:25:12.634Z,14.75
2024-03-11T06:27:41.718Z,11.93
2024-03-11T06:30:13.001Z,12.57
2024-03-11T06:32:42.868Z,11.30
2024-03-11T06:35:10.588Z,15.40
2024-03-11T06:37:39.417Z,13.15
2024-03-11T06:40:08.824Z,12.45
2024-03-11T06:42:37.288Z,13.93
2024-03-11T06:45:07.002Z,14.10
2024-03-11T06:47:35.700Z,11.77
2024-03-11T06:50:03.901Z,11.85
2024-03-11T06:52:35.488Z,12.75
2024-03-11T06:55:04.020Z,10.87
2024-03-11T06:57:32.329Z,12.10
2024-03-11T07:00:00.335Z,13.00
2024-03-11T07:02:28.880Z,11.93
2024-03-11T07:04:58.402Z,20.40
2024-03-11T07:07:27.336Z,15.43
2024-03-11T07:09:58.431Z,12.68
2024-03-11T07:12:26.159Z,16.30
2024-03-11T07:14:54.377Z,16.20
2024-03-11T07:17:22.866Z,11.80
2024-03-11T07:19:51.872Z,14.93
2024-03-11T07:22:21.473Z,12.57
2024-03-11T07:24:49.362Z,12.77
2024-03-11T07:27:17.909Z,15.35
2024-03-11T07:29:46.531Z,14.82
2024-03-11T07:32:14.355Z,12.70
2024-03-11T07:34:43.924Z,12.18
2024-03-11T07:37:11.866Z,13.32
2024-03-11T07:39:42.473Z,15.75
2024-03-11T07:42:10.392Z,13.02
2024-03-11T07:44:38.264Z,18.13
2024-03-11T07:47:09.486Z,13.43
2024-03-11T07:49:37.518Z,14.98
2024-03-11T07:52:05.600Z,12.45
2024-03-11T07:54:33.733Z,12.25
2024-03-11T07:57:01.322Z,14.87
2024-03-11T07:59:29.597Z,9.20
2024-03-11T08:01:57.257Z,11.00
2024-03-11T08:04:25.854Z,9.75
2024-03-11T08:06:53.866Z,15.30
2024-03-11T08:09:22.199Z,9.53
2024-03-11T08:11:56.384Z,11.82
2024-03-11T08:14:27.359Z,10.95
2024-03-11T08:16:56.079Z,10.77
2024-03-11T08:19:23.990Z,11.70
2024-03-11T08:21:51.899Z,10.00
2024-03-11T08:24:19.822Z,14.38
2024-03-11T08:26:47.923Z,15.90
2024-03-11T08:29:15.455Z,12.88
2024-03-11T08:31:43.420Z,13.30
2024-03-11T08:34:11.394Z,8.57
2024-03-11T08:36:39.681Z,8.70
2024-03-11T08:39:08.143Z,8.70
2024-03-11T08:41:36.159Z,11.70
2024-03-11T08:44:04.107Z,15.77
2024-03-11T08:46:31.842Z,11.37
2024-03-11T08:48:59.405Z,16.83
2024-03-11T08:51:27.986Z,14.38
2024-03-11T08:53:58.107Z,17.10
2024-03-11T08:56:27.278Z,14.73
2024-03-11T08:58:54.981Z,11.97
2024-03-11T09:01:23.001Z,14.45
2024-03-11T09:03:51.105Z,22.70
2024-03-11T09:06:19.033Z,24.85
2024-03-11T09:08:53.713Z,21.02
2024-03-11T09:11:24.562Z,11.47
2024-03-11T09:13:52.903Z,10.32
2024-03-11T09:16:20.676Z,10.02
2024-03-11T09:18:49.159Z,13.30
2024-03-11T09:21:18.795Z,12.18
2024-03-11T09:23:46.572Z,12.17
2024-03-11T09:26:14.552Z,10.77
2024-03-11T09:28:42.188Z,38.22
2024-03-11T09:31:16.576Z,21.05
2024-03-11T09:33:48.933Z,17.30
2024-03-11T09:36:19.074Z,17.90
2024-03-11T09:38:50.226Z,15.70
2024-03-11T09:41:17.869Z,16.33
2024-03-11T09:43:50.051Z,20.63
2024-03-11T09:46:23.595Z,22.10
2024-03-11T09:48:52.736Z,16.07
2024-03-11T09:51:23.069Z,15.57
2024-03-11T09:53:54.911Z,15.68
2024-03-11T09:56:22.954Z,10.40
2024-03-11T09:58:59.938Z,13.25
2024-03-11T10:01:32.536Z,13.27
2024-03-11T10:04:00.805Z,11.85
2024-03-11T10:06:35.579Z,10.93
2024-03-11T10:09:05.697Z,11.35
2024-03-11T10:11:34.867Z,11.80
2024-03-11T10:14:21.555Z,12.03
2024-03-11T10:16:50.110Z,9.75
2024-03-11T10:19:20.182Z,10.35
2024-03-11T10:21:50.460Z,10.80
2024-03-11T10:24:18.265Z,15.38
2024-03-11T10:26:47.684Z,9.87
2024-03-11T10:29:18.905Z,13.38
2024-03-11T10:31:49.140Z,11.55
2024-03-11T10:34:22.733Z,9.30
2024-03-11T10:37:03.977Z,11.68
2024-03-11T10:39:39.560Z,11.63
2024-03-11T10:42:14.499Z,12.27
2024-03-11T10:44:42.850Z,8.30
2024-03-11T10:47:20.049Z,9.55
2024-03-11T10:49:51.334Z,7.25
2024-03-11T10:52:22.637Z,10.10
2024-03-11T10:55:06.572Z,9.18
2024-03-11T10:57:41.142Z,8.43
2024-03-11T11:00:19.782Z,8.82
2024-03-11T11:02:57.391Z,7.90
2024-03-11T11:05:26.556Z,7.50
2024-03-11T11:07:57.788Z,8.18
2024-03-11T11:10:31.559Z,9.07
2024-03-11T11:13:02.847Z,8.43
2024-03-11T11:15:31.006Z,8.63
2024-03-11T11:17:58.730Z,6.33
2024-03-11T11:20:36.873Z,7.47
2024-03-11T11:23:06.418Z,8.38
2024-03-11T11:25:45.839Z,8.75
2024-03-11T11:28:28.071Z,8.15
2024-03-11T11:31:14.254Z,7.90
2024-03-11T11:33:58.065Z,11.75
2024-03-11T11:36:57.338Z,8.27
2024-03-11T11:39:29.222Z,9.40
2024-03-11T11:42:00.961Z,10.10
2024-03-11T11:44:33.259Z,10.13
2024-03-11T11:47:11.442Z,10.13
2024-03-11T11:49:44.647Z,9.63
2024-03-11T11:52:15.624Z,6.80
2024-03-11T11:54:44.649Z,9.48
2024-03-11T11:57:17.946Z,8.87
2024-03-11T12:00:05.096Z,6.32
2024-03-11T12:02:35.360Z,5.93
2024-03-11T12:05:07.850Z,8.18
2024-03-11T12:07:49.898Z,8.38
2024-03-11T12:10:22.058Z,7.70
2024-03-11T12:12:51.285Z,8.05
2024-03-11T12:15:25.125Z,10.65
2024-03-11T12:17:56.579Z,8.55
2024-03-11T12:20:32.936Z,8.25
2024-03-11T12:23:03.771Z,10.13
2024-03-11T12:25:34.992Z,9.02
2024-03-11T12:28:09.746Z,9.80
2024-03-11T12:30:40.990Z,9.30
2024-03-11T12:33:10.804Z,10.88
2024-03-11T12:35:39.317Z,6.90
2024-03-11T12:38:09.526Z,6.85
2024-03-11T12:40:49.631Z,5.80
2024-03-11T12:43:22.730Z,6.28
2024-03-11T12:45:56.830Z,7.45
2024-03-11T12:48:25.605Z,9.37
2024-03-11T12:50:59.904Z,5.82
2024-03-11T12:53:29.387Z,6.50
2024-03-11T12:56:14.419Z,6.93
2024-03-11T12:58:44.225Z,8.00
2024-03-11T13:01:17.282Z,9.73
2024-03-11T13:03:49.210Z,8.50
2024-03-11T13:06:21.435Z,7.13
2024-03-11T13:08:51.525Z,5.70
2024-03-11T13:11:20.919Z,5.72
2024-03-11T13:13:48.936Z,6.67
2024-03-11T13:16:19.954Z,6.47
2024-03-11T13:18:53.472Z,7.45
2024-03-11T13:21:24.454Z,6.50
2024-03-11T13:23:54.403Z,7.57
2024-03-11T13:26:24.701Z,6.57
2024-03-11T13:28:56.191Z,7.03
2024-03-11T13:31:31.118Z,8.80
2024-03-11T13:34:00.057Z,7.22
2024-03-11T13:36:28.912Z,7.72
2024-03-11T13:38:56.586Z,6.17
2024-03-11T13:41:24.288Z,8.27
2024-03-11T13:43:52.600Z,6.20
2024-03-11T13:46:24.434Z,6.65
2024-03-11T13:48:52.243Z,7.72
2024-03-11T13:51:20.940Z,8.53
2024-03-11T13:53:49.214Z,5.35
2024-03-11T13:56:16.737Z,7.47
2024-03-11T13:58:44.344Z,6.68
2024-03-11T14:01:12.243Z,8.90
2024-03-11T14:03:43.581Z,7.40
2024-03-11T14:06:14.430Z,9.00
2024-03-11T14:08:42.529Z,5.82
2024-03-11T14:11:11.711Z,6.93
2024-03-11T14:13:39.478Z,7.63
2024-03-11T14:16:07.437Z,8.40
2024-03-11T14:18:35.465Z,7.00
2024-03-11T14:21:05.808Z,10.15
2024-03-11T14:23:33.502Z,7.75
2024-03-11T14:26:03.063Z,7.82
2024-03-11T14:28:31.436Z,7.57
2024-03-11T14:31:03.713Z,8.73
2024-03-11T14:33:31.829Z,9.05
2024-03-11T14:35:59.557Z,8.55
2024-03-11T14:38:27.580Z,11.38
2024-03-11T14:40:55.160Z,13.03
2024-03-11T14:43:22.807Z,13.02
2024-03-11T14:45:50.582Z,15.32
2024-03-11T14:48:21.495Z,16.55
2024-03-11T14:50:52.036Z,16.33
2024-03-11T14:53:20.973Z,18.13
2024-03-11T14:55:48.747Z,18.27
2024-03-11T14:58:20.860Z,20.83
2024-03-11T15:00:50.807Z,20.38
2024-03-11T15:03:20.194Z,18.95
2024-03-11T15:05:48.324Z,19.23
2024-03-11T15:08:17.378Z,22.67
2024-03-11T15:10:46.162Z,20.70
2024-03-11T15:13:16.134Z,21.73
2024-03-11T15:15:46.540Z,22.08
2024-03-11T15:18:18.830Z,19.70
2024-03-11T15:20:51.078Z,21.70
2024-03-11T15:23:26.830Z,25.00
2024-03-11T15:25:55.398Z,25.40
2024-03-11T15:28:23.697Z,25.13
2024-03-11T15:30:58.102Z,24.73
2024-03-11T15:33:26.047Z,26.30
2024-03-11T15:35:53.781Z,27.23
2024-03-11T15:38:22.399Z,27.13
2024-03-11T15:40:52.151Z,27.92
2024-03-11T15:43:20.067Z,27.97
2024-03-11T15:45:48.634Z,30.73
2024-03-11T15:48:17.020Z,28.58
2024-03-11T15:50:44.671Z,33.83
2024-03-11T15:53:14.562Z,35.95
2024-03-11T15:55:43.002Z,43.17
2024-03-11T15:58:10.741Z,42.80
2024-03-11T16:00:38.730Z,36.30
2024-03-11T16:03:09.672Z,44.53
2024-03-11T16:05:41.009Z,34.78
2024-03-11T16:08:17.188Z,37.23
2024-03-11T16:10:47.169Z,28.20
2024-03-11T16:13:15.014Z,24.13
2024-03-11T16:15:42.813Z,27.90
2024-03-11T16:18:14.488Z,28.67
2024-03-11T16:20:42.701Z,26.03
2024-03-11T16:23:10.620Z,23.98
2024-03-11T16:25:39.825Z,25.75
2024-03-11T16:28:11.349Z,25.00
2024-03-11T16:30:39.442Z,23.27
2024-03-11T16:33:10.540Z,28.90
2024-03-11T16:35:38.294Z,26.08
2024-03-11T16:38:10.846Z,25.77
2024-03-11T16:40:40.659Z,31.23
2024-03-11T16:43:11.886Z,27.20
2024-03-11T16:45:50.502Z,29.47
2024-03-11T16:48:18.513Z,31.42
2024-03-11T16:50:48.827Z,29.90
2024-03-11T16:53:22.465Z,28.17
2024-03-11T16:55:52.465Z,30.60
2024-03-11T16:58:20.171Z,30.30
2024-03-11T17:00:50.321Z,30.27
2024-03-11T17:03:18.567Z,31.83
2024-03-11T17:05:46.427Z,32.80
2024-03-11T17:08:16.138Z,28.02
2024-03-11T17:10:49.875Z,32.10
2024-03-11T17:13:20.336Z,31.02
2024-03-11T17:15:52.359Z,29.40
2024-03-11T17:18:22.810Z,30.75
2024-03-11T17:20:56.720Z,31.00
2024-03-11T17:23:28.504Z,28.03
2024-03-11T17:25:56.948Z,30.08
2024-03-11T17:28:27.774Z,24.95
2024-03-11T17:30:56.326Z,30.52
2024-03-11T17:33:25.058Z,24.48
2024-03-11T17:35:53.580Z,25.07
2024-03-11T17:38:23.662Z,25.85
2024-03-11T17:40:55.420Z,30.05
2024-03-11T17:43:25.079Z,26.10
2024-03-11T17:45:54.807Z,28.13
2024-03-11T17:48:28.351Z,26.50
2024-03-11T17:50:58.540Z,25.80
2024-03-11T17:53:26.552Z,29.10
2024-03-11T17:55:55.529Z,25.33
2024-03-11T17:58:25.744Z,27.50
2024-03-11T18:00:54.381Z,29.00
2024-03-11T18:03:22.387Z,25.85
2024-03-11T18:05:50.212Z,28.08
2024-03-11T18:08:19.248Z,27.88
2024-03-11T18:10:47.901Z,25.05
2024-03-11T18:13:17.328Z,23.50
2024-03-11T18:15:48.506Z,24.85
2024-03-11T18:18:21.989Z,21.17
2024-03-11T18:20:51.575Z,25.13
2024-03-11T18:23:19.282Z,24.15
2024-03-11T18:25:52.469Z,20.70
2024-03-11T18:28:22.214Z,18.65
2024-03-11T18:30:50.569Z,14.75
2024-03-11T18:33:19.801Z,12.35
2024-03-11T18:35:47.815Z,9.43
2024-03-11T18:38:17.062Z,8.63
2024-03-11T18:40:45.148Z,9.73
2024-03-11T18:43:17.018Z,8.63
2024-03-11T18:45:47.748Z,8.40
2024-03-11T18:48:16.092Z,7.28
2024-03-11T18:50:45.155Z,6.43
2024-03-11T18:53:13.399Z,7.35
2024-03-11T18:55:41.172Z,6.72
2024-03-11T18:58:12.482Z,8.18
2024-03-11T19:00:40.445Z,7.25
2024-03-11T19:03:07.950Z,6.70
2024-03-11T19:05:35.537Z,8.20
2024-03-11T19:08:06.157Z,7.47
2024-03-11T19:10:34.689Z,6.55
2024-03-11T19:13:05.825Z,7.38
2024-03-11T19:15:34.129Z,6.10
2024-03-11T19:18:01.975Z,6.40
2024-03-11T19:20:31.369Z,7.40
2024-03-11T19:22:59.667Z,5.65
2024-03-11T19:25:33.496Z,6.15
2024-03-11T19:28:03.346Z,6.10
2024-03-11T19:30:33.668Z,4.95
2024-03-11T19:33:03.659Z,3.97
2024-03-11T19:35:31.839Z,3.58
2024-03-11T19:38:17.751Z,3.85
2024-03-11T19:40:45.341Z,2.97
2024-03-11T19:43:24.428Z,3.38
2024-03-11T19:46:32.351Z,3.25
2024-03-11T19:49:25.346Z,2.85
2024-03-11T19:52:08.934Z,5.30
2024-03-11T19:55:16.722Z,4.17
2024-03-11T19:58:02.716Z,3.20
2024-03-11T20:00:56.361Z,3.35
2024-03-11T20:03:30.106Z,2.90
2024-03-11T20:06:22.647Z,3.00
2024-03-11T20:09:32.172Z,2.50
2024-03-11T20:12:29.017Z,3.33
2024-03-11T20:14:58.438Z,2.60
2024-03-11T20:17:38.605Z,3.03
2024-03-11T20:20:25.067Z,3.00
2024-03-11T20:23:13.336Z,4.37
2024-03-11T20:26:09.336Z,1.48
2024-03-11T20:29:16.389Z,1.77
2024-03-11T20:32:12.548Z,1.35
2024-03-11T20:34:42.039Z,2.40
2024-03-11T20:37:12.171Z,1.60
2024-03-11T20:39:40.842Z,2.58
2024-03-11T20:42:12.078Z,2.55
2024-03-11T20:44:42.720Z,1.15
2024-03-11T20:47:10.369Z,1.10
2024-03-11T20:49:37.875Z,1.27
2024-03-11T20:52:08.230Z,1.95
2024-03-11T20:54:37.258Z,1.30
2024-03-11T20:57:05.199Z,2.28
2024-03-11T20:59:32.778Z,0.55
2024-03-11T21:02:00.499Z,1.10
2024-03-11T21:04:28.142Z,0.88
2024-03-11T21:06:55.766Z,0.88
2024-03-11T21:09:23.696Z,0.63
2024-03-11T21:11:51.205Z,1.23
2024-03-11T21:14:19.349Z,1.33
2024-03-11T21:16:47.256Z,2.17
2024-03-11T21:19:23.927Z,1.08
2024-03-11T21:22:06.617Z,0.50
2024-03-11T21:24:42.938Z,0.68
2024-03-11T21:27:39.635Z,1.43
2024-03-11T21:30:09.076Z,1.60
2024-03-11T21:32:36.822Z,0.60
2024-03-11T21:35:05.179Z,0.85
2024-03-11T21:37:33.299Z,1.77
2024-03-11T21:40:01.395Z,0.93
2024-03-11T21:42:29.033Z,1.30
2024-03-11T21:44:56.651Z,1.15
2024-03-11T21:47:24.822Z,0.40
2024-03-11T21:49:52.531Z,1.52
2024-03-11T21:52:20.093Z,1.17
2024-03-11T21:54:47.961Z,1.10
2024-03-11T21:57:15.715Z,0.60
2024-03-11T21:59:47.804Z,1.38
2024-03-11T22:02:17.383Z,0.30
2024-03-11T22:04:45.125Z,0.67
2024-03-11T22:07:13.465Z,1.05
2024-03-11T22:09:42.020Z,0.52
2024-03-11T22:12:09.949Z,0.63
2024-03-11T22:14:38.622Z,0.50
2024-03-11T22:17:07.185Z,1.13
2024-03-11T22:19:35.297Z,0.30
2024-03-11T22:22:04.949Z,1.70
2024-03-11T22:24:32.981Z,2.30
2024-03-11T22:27:05.944Z,0.55
2024-03-11T22:29:34.746Z,0.97
2024-03-11T22:32:02.303Z,1.05
2024-03-11T22:34:30.038Z,0.38
2024-03-11T22:36:57.593Z,0.20
2024-03-11T22:39:25.175Z,0.30
2024-03-11T22:41:52.722Z,0.90
2024-03-11T22:44:21.989Z,0.60
2024-03-11T22:46:49.469Z,0.85
2024-03-11T22:49:17.064Z,1.45
2024-03-11T22:51:45.140Z,0.50
2024-03-11T22:54:13.177Z,0.80
2024-03-11T22:56:41.242Z,0.43
2024-03-11T22:59:10.360Z,0.55
2024-03-11T23:01:38.028Z,1.05
2024-03-11T23:04:06.022Z,0.30
2024-03-11T23:06:36.686Z,0.20
2024-03-11T23:09:08.956Z,0.43
2024-03-11T23:11:37.563Z,0.30
2024-03-11T23:14:05.418Z,0.52
2024-03-11T23:16:33.070Z,0.30
2024-03-11T23:19:04.308Z,0.93
2024-03-11T23:21:32.171Z,0.20
2024-03-11T23:23:59.674Z,0.75
2024-03-11T23:26:28.550Z,0.90
2024-03-11T23:28:56.144Z,0.60
2024-03-11T23:31:25.688Z,0.40
2024-03-11T23:33:53.296Z,0.45
2024-03-11T23:36:23.696Z,0.22
2024-03-11T23:38:52.026Z,0.20
2024-03-11T23:41:19.965Z,0.40
2024-03-11T23:43:48.273Z,0.27
2024-03-11T23:46:15.850Z,0.20
2024-03-11T23:48:46.736Z,0.20
2024-03-11T23:51:14.402Z,0.73
2024-03-11T23:53:41.997Z,0.63
2024-03-11T23:56:10.338Z,0.87
2024-03-11T23:58:39.145Z,0.20
